Solihull, United Kingdom
Current Conditions -  °F | °C
As of 5:20 AM on Saturday 20 Dec 2014 (Local Time) from EGBB Reporting Station
Broken Clouds Broken Clouds  
Wind Chill: 39°   Ceiling: 4500
Heat Index: 45°   Visibility: 6mi
Dew Point: 36°   Wind: 10mph
Humidity: 71%   Direction: 250°WSW
Pressure: 30.15"   Gusts: NA
Location:  52.41°N, 1.77°W
Report Text: EGBB 200520Z 25009KT 9999 BKN045 07/02 Q1021
Loading
Personal Weather Stations






























Interactive Weather Map New forecast layout! Learn more

10-Day Weather Forecast

Advertisements
Track Severe Weather on mobile